Coalton, Ohio
Current Conditions -  °F | °C
As of 9:15 PM on Saturday 22 Nov 2014 (Local Time) from KUNI Reporting Station
Scattered Clouds Scattered Clouds  
Wind Chill: 46°   Ceiling: Unl
Heat Index: 49°   Visibility: 10mi
Dew Point: 28°   Wind: 6mph
Humidity: 45%   Direction: 170°S
Pressure: 30.13"   Gusts: NA
Location:  39.11°N, 82.61°W
Report Text: KUNI 230215Z AUTO 17005KT 10SM SCT085 SCT100 09/M02 A3013 RMK AO2 T00931020
Loading
Personal Weather Stations






























Interactive Weather Map New forecast layout! Learn more

10-Day Weather Forecast

Advertisements
Track Severe Weather on mobile